Time;durP1;ratioP1;P1;durP2;ratioP2;P2;SDS_P1;SDS_P2;PMS_P1;PMS_P2;Temp;Humidity;BMP_temperature;BMP_pressure;BME280_temperature;BME280_humidity;BME280_pressure;Samples;Min_cycle;Max_cycle;Signal;HPM_P1;HPM_P2
2023/01/11 00:02:19;;;;;;;11.40;8.63;;;;;;;7.96;100.00;96331.38;5046897;28;20279;-72
2023/01/11 00:04:47;;;;;;;11.53;8.43;;;;;;;7.90;100.00;96326.50;5046646;28;20189;-72
2023/01/11 00:07:15;;;;;;;12.67;9.60;;;;;;;8.00;100.00;96326.88;5046419;28;20293;-75
2023/01/11 00:09:43;;;;;;;14.10;10.83;;;;;;;8.01;100.00;96334.56;5046315;28;20189;-73
2023/01/11 00:12:13;;;;;;;13.50;10.30;;;;;;;7.99;100.00;96344.13;5046937;28;20186;-73
2023/01/11 00:14:41;;;;;;;12.57;9.77;;;;;;;8.02;100.00;96336.22;5044595;28;20221;-73
2023/01/11 00:17:08;;;;;;;12.97;9.00;;;;;;;8.09;100.00;96336.78;5046664;28;20232;-74
2023/01/11 00:19:35;;;;;;;13.73;9.47;;;;;;;7.97;100.00;96338.22;5044394;28;20233;-72
2023/01/11 00:22:02;;;;;;;13.60;9.10;;;;;;;8.00;100.00;96348.34;5046330;28;20687;-73
2023/01/11 00:24:29;;;;;;;15.00;9.33;;;;;;;8.01;100.00;96344.88;5046570;28;20731;-73
2023/01/11 00:26:57;;;;;;;11.73;8.37;;;;;;;7.94;100.00;96340.91;5046189;28;20186;-74
2023/01/11 00:29:24;;;;;;;12.17;7.97;;;;;;;7.98;100.00;96357.06;5047329;28;20192;-74
2023/01/11 00:31:52;;;;;;;11.67;8.80;;;;;;;7.94;100.00;96346.06;5045746;28;20281;-73
2023/01/11 00:34:19;;;;;;;10.30;7.70;;;;;;;8.05;100.00;96358.47;5047054;28;20742;-74
2023/01/11 00:36:46;;;;;;;8.50;7.53;;;;;;;8.03;100.00;96345.66;5046040;28;20198;-73
2023/01/11 00:39:14;;;;;;;9.97;8.30;;;;;;;8.06;100.00;96360.97;5047320;28;20194;-73
2023/01/11 00:49:59;;;;;;;10.53;7.33;;;;;;;8.11;100.00;96366.75;5050196;28;20197;-76
2023/01/11 00:52:28;;;;;;;9.03;7.30;;;;;;;8.13;100.00;96370.09;5048879;28;20197;-77
2023/01/11 00:54:55;;;;;;;10.30;7.60;;;;;;;8.20;100.00;96370.66;5050856;28;20641;-79
2023/01/11 00:57:23;;;;;;;10.40;8.17;;;;;;;7.88;100.00;96366.97;5048330;28;20194;-74
2023/01/11 00:59:49;;;;;;;8.03;6.70;;;;;;;7.97;100.00;96366.56;5050637;28;20221;-75
2023/01/11 01:02:17;;;;;;;8.63;6.57;;;;;;;7.93;100.00;96361.63;5049671;28;20669;-75
2023/01/11 01:04:44;;;;;;;10.27;7.73;;;;;;;7.90;100.00;96370.31;5050500;28;20277;-74
2023/01/11 01:07:12;;;;;;;8.87;7.50;;;;;;;7.74;100.00;96365.94;5049731;28;20756;-73
2023/01/11 01:09:39;;;;;;;9.70;7.53;;;;;;;7.89;100.00;96373.78;5050025;28;20273;-78
2023/01/11 01:12:08;;;;;;;10.13;6.77;;;;;;;7.86;100.00;96373.09;5049743;28;20225;-78
2023/01/11 01:14:35;;;;;;;10.13;7.97;;;;;;;7.78;100.00;96382.94;5049417;28;20197;-77
2023/01/11 01:17:07;;;;;;;9.80;7.97;;;;;;;7.69;100.00;96375.59;5048766;28;20731;-74
2023/01/11 01:19:37;;;;;;;9.90;7.13;;;;;;;7.76;100.00;96380.44;5049058;28;20217;-78
2023/01/11 01:22:06;;;;;;;9.70;7.17;;;;;;;7.67;100.00;96373.09;5049795;28;20332;-80
2023/01/11 01:24:33;;;;;;;10.70;7.47;;;;;;;7.67;100.00;96380.81;5049227;28;20201;-77
2023/01/11 01:27:00;;;;;;;12.07;8.33;;;;;;;7.77;100.00;96381.28;5049465;28;20222;-74
2023/01/11 01:29:28;;;;;;;10.13;7.37;;;;;;;7.87;100.00;96382.53;5049562;28;20726;-75
2023/01/11 01:31:55;;;;;;;9.80;8.00;;;;;;;7.62;100.00;96369.91;5047764;28;20222;-73
2023/01/11 01:34:22;;;;;;;9.07;7.07;;;;;;;7.82;100.00;96382.72;5049766;28;20675;-76
2023/01/11 01:36:50;;;;;;;9.57;7.77;;;;;;;7.80;100.00;96392.28;5048548;28;20691;-73
2023/01/11 01:39:17;;;;;;;8.57;6.80;;;;;;;7.77;100.00;96389.81;5049522;28;20182;-73
2023/01/11 01:41:44;;;;;;;10.77;7.83;;;;;;;7.85;100.00;96380.00;5048545;28;20221;-72
2023/01/11 01:44:52;;;;;;;10.00;7.53;;;;;;;7.97;100.00;96391.50;5049271;28;20216;-73
2023/01/11 01:47:37;;;;;;;10.57;7.40;;;;;;;8.01;100.00;96375.81;5048005;28;20208;-72
2023/01/11 01:50:11;;;;;;;10.53;6.67;;;;;;;8.05;100.00;96397.97;5048282;28;20190;-72
2023/01/11 01:52:39;;;;;;;11.80;7.83;;;;;;;8.04;100.00;96385.13;5031319;28;20189;-77
2023/01/11 01:55:11;;;;;;;11.87;8.10;;;;;;;8.15;100.00;96401.81;5047676;28;20197;-79
2023/01/11 01:57:41;;;;;;;12.10;7.83;;;;;;;8.11;100.00;96402.84;5048910;28;20224;-73
2023/01/11 02:00:09;;;;;;;8.03;6.70;;;;;;;8.11;100.00;96396.84;5049320;28;20214;-74
2023/01/11 02:02:39;;;;;;;8.83;6.20;;;;;;;8.13;100.00;96401.03;5046634;28;20279;-75
2023/01/11 02:05:07;;;;;;;8.53;6.50;;;;;;;8.12;100.00;96395.94;5049389;28;20194;-72
2023/01/11 02:07:37;;;;;;;9.00;6.87;;;;;;;8.13;100.00;96400.19;5030277;28;20194;-78
2023/01/11 02:10:12;;;;;;;8.50;6.37;;;;;;;8.15;99.46;96406.97;5047663;28;20232;-74
2023/01/11 02:13:13;;;;;;;8.20;6.20;;;;;;;8.24;98.89;96410.88;5048674;28;20708;-73
2023/01/11 02:15:40;;;;;;;7.77;5.80;;;;;;;8.19;98.63;96413.66;5040248;28;20657;-73
2023/01/11 02:18:11;;;;;;;9.63;5.17;;;;;;;8.22;99.32;96410.09;5049142;28;20240;-72
2023/01/11 02:20:57;;;;;;;6.43;5.07;;;;;;;8.09;99.21;96404.66;5046647;28;20182;-74
2023/01/11 02:23:41;;;;;;;8.73;7.17;;;;;;;8.05;99.05;96413.44;5048241;28;20217;-72
2023/01/11 02:26:26;;;;;;;8.13;6.27;;;;;;;8.14;99.02;96420.75;5049073;28;20251;-73
2023/01/11 02:29:07;;;;;;;7.40;5.47;;;;;;;8.11;99.28;96422.63;5047812;28;20293;-78
2023/01/11 02:31:52;;;;;;;7.07;5.53;;;;;;;8.11;99.23;96417.47;5048695;28;20595;-78
2023/01/11 02:34:41;;;;;;;6.77;5.53;;;;;;;8.11;98.52;96418.31;5048234;28;20193;-79
2023/01/11 02:37:37;;;;;;;5.73;5.13;;;;;;;8.11;98.47;96426.06;5047657;28;20290;-78
2023/01/11 02:40:20;;;;;;;5.67;4.63;;;;;;;8.04;98.84;96432.41;5029991;28;20190;-77
2023/01/11 02:46:05;;;;;;;9.03;5.93;;;;;;;7.82;100.00;96423.97;5046198;28;20190;-78
2023/01/11 02:48:48;;;;;;;8.03;5.43;;;;;;;7.77;100.00;96407.03;5048355;28;20217;-78
2023/01/11 02:51:22;;;;;;;6.40;4.47;;;;;;;7.85;100.00;96426.38;5047338;28;20694;-79
2023/01/11 02:53:55;;;;;;;5.47;4.07;;;;;;;7.79;100.00;96426.66;5047722;28;20209;-72
2023/01/11 02:56:26;;;;;;;5.03;3.83;;;;;;;7.71;99.88;96425.31;5048117;28;20243;-74
2023/01/11 02:58:56;;;;;;;5.60;3.07;;;;;;;7.60;99.45;96425.81;5047360;28;20228;-73
2023/01/11 03:01:24;;;;;;;3.60;2.63;;;;;;;7.62;99.31;96429.16;5046671;28;20255;-72
2023/01/11 03:03:52;;;;;;;4.20;2.77;;;;;;;7.39;98.62;96431.91;5046912;28;20190;-72
2023/01/11 03:06:24;;;;;;;2.20;2.00;;;;;;;7.18;98.01;96430.22;5048233;28;20566;-72
2023/01/11 03:09:03;;;;;;;3.33;2.30;;;;;;;7.26;99.16;96438.47;5047644;28;20222;-77
2023/01/11 03:15:16;;;;;;;2.50;1.97;;;;;;;7.20;98.69;96444.72;5046475;28;20754;-73
2023/01/11 03:18:02;;;;;;;2.73;2.40;;;;;;;7.19;98.10;96448.19;5024972;28;20226;-71
2023/01/11 03:21:08;;;;;;;2.37;1.97;;;;;;;7.19;98.26;96448.19;5045332;28;20688;-74
2023/01/11 03:23:48;;;;;;;2.90;1.90;;;;;;;7.18;97.97;96446.53;5047374;28;20319;-72
2023/01/11 03:26:15;;;;;;;2.53;2.23;;;;;;;7.19;98.48;96455.09;5047307;28;20617;-71
2023/01/11 03:29:07;;;;;;;7.13;4.63;;;;;;;7.17;98.10;96454.31;5046911;28;20596;-71
2023/01/11 03:31:40;;;;;;;5.90;3.70;;;;;;;7.17;97.49;96451.75;5046318;28;20228;-71
2023/01/11 03:34:45;;;;;;;3.97;3.10;;;;;;;7.15;97.44;96448.41;5046621;28;20284;-72
2023/01/11 03:37:28;;;;;;;2.60;1.87;;;;;;;7.23;96.90;96452.31;5047066;28;20198;-72
2023/01/11 03:40:10;;;;;;;2.67;2.00;;;;;;;7.18;96.16;96454.25;5047416;28;20201;-73
2023/01/11 03:43:09;;;;;;;4.07;3.10;;;;;;;7.15;97.57;96462.09;5046281;28;20900;-71
2023/01/11 03:45:34;;;;;;;3.57;1.90;;;;;;;7.19;96.93;96458.47;5047098;28;20224;-74
2023/01/11 03:48:04;;;;;;;2.30;2.10;;;;;;;7.18;96.82;96458.56;5047214;28;20270;-76
2023/01/11 03:50:32;;;;;;;2.10;1.90;;;;;;;7.18;95.94;96468.84;5045274;28;20583;-76
2023/01/11 03:53:04;;;;;;;1.60;1.50;;;;;;;7.19;96.13;96462.81;5046921;28;20281;-73
2023/01/11 03:55:38;;;;;;;2.37;1.70;;;;;;;7.03;96.83;96466.91;5045011;28;20593;-72
2023/01/11 03:58:07;;;;;;;1.43;1.33;;;;;;;7.06;96.46;96465.06;5045957;28;20188;-73
2023/01/11 04:00:35;;;;;;;1.07;1.07;;;;;;;7.00;96.14;96478.19;5046722;28;20194;-72
2023/01/11 04:03:04;;;;;;;1.40;1.30;;;;;;;7.00;95.71;96482.50;5012611;28;20291;-74
2023/01/11 04:05:33;;;;;;;2.20;1.70;;;;;;;6.95;96.10;96482.66;5046988;28;20288;-79
2023/01/11 04:08:00;;;;;;;1.40;1.30;;;;;;;6.88;96.07;96472.69;5046338;28;20193;-74
2023/01/11 04:10:27;;;;;;;2.17;1.97;;;;;;;6.91;97.15;96485.41;5047217;28;20197;-73
2023/01/11 04:12:54;;;;;;;1.43;1.33;;;;;;;6.88;95.93;96488.13;5045978;28;20543;-73
2023/01/11 04:15:21;;;;;;;1.30;1.20;;;;;;;6.82;95.83;96483.22;5043048;28;20218;-76
2023/01/11 04:17:48;;;;;;;1.97;1.60;;;;;;;6.53;95.93;96438.91;5038846;28;20794;-73
2023/01/11 04:20:15;;;;;;;2.33;1.87;;;;;;;6.82;95.59;96511.53;5045280;28;20675;-73
2023/01/11 04:22:42;;;;;;;3.77;2.13;;;;;;;6.79;95.22;96509.06;5046694;28;20651;-77
2023/01/11 04:25:10;;;;;;;3.50;2.43;;;;;;;6.78;95.78;96507.41;5044754;28;20213;-73
2023/01/11 04:27:39;;;;;;;3.30;2.70;;;;;;;6.73;95.91;96507.59;5046984;28;20194;-72
2023/01/11 04:30:07;;;;;;;4.00;2.83;;;;;;;6.65;95.95;96516.50;5045823;28;20243;-72
2023/01/11 04:32:34;;;;;;;4.63;3.40;;;;;;;6.64;96.94;96525.94;5046845;28;20194;-73
2023/01/11 04:35:01;;;;;;;5.03;3.30;;;;;;;6.59;97.02;96528.69;5046033;28;20299;-72
2023/01/11 04:37:29;;;;;;;4.20;3.17;;;;;;;6.57;96.73;96537.38;5039141;28;20695;-74
2023/01/11 04:39:56;;;;;;;6.43;3.50;;;;;;;6.54;96.41;96540.91;5026420;28;20596;-72
2023/01/11 04:42:23;;;;;;;2.57;2.37;;;;;;;6.56;96.50;96548.56;5035291;28;20225;-73
2023/01/11 04:44:51;;;;;;;3.07;2.37;;;;;;;6.56;96.32;96556.28;5040007;28;20286;-73
2023/01/11 04:47:22;;;;;;;3.73;2.83;;;;;;;6.51;96.93;96559.00;5045720;28;20284;-73
2023/01/11 04:49:49;;;;;;;2.53;2.07;;;;;;;6.60;97.17;96552.69;5045444;28;20190;-73
2023/01/11 04:52:19;;;;;;;2.43;2.23;;;;;;;6.53;96.52;96557.22;5024486;28;20729;-73
2023/01/11 04:54:47;;;;;;;2.40;2.10;;;;;;;6.72;95.84;96564.25;5034722;28;20670;-73
2023/01/11 04:57:16;;;;;;;2.47;1.97;;;;;;;6.59;96.06;96549.25;5018299;28;20232;-73
2023/01/11 04:59:45;;;;;;;3.07;2.50;;;;;;;6.54;95.78;96551.19;5036580;28;20183;-77
2023/01/11 05:02:14;;;;;;;3.83;2.23;;;;;;;6.59;95.77;96559.56;5036774;28;20675;-74
2023/01/11 05:04:41;;;;;;;3.33;2.53;;;;;;;6.54;96.07;96558.91;5045426;28;20252;-74
2023/01/11 05:07:09;;;;;;;2.53;2.27;;;;;;;6.38;96.19;96565.53;5046627;28;20196;-74
2023/01/11 05:09:36;;;;;;;4.63;2.50;;;;;;;6.29;96.88;96552.16;5045589;28;20189;-76
2023/01/11 05:12:03;;;;;;;3.10;2.23;;;;;;;6.37;96.60;96568.13;5046250;28;20254;-74
2023/01/11 05:14:31;;;;;;;2.87;1.93;;;;;;;6.28;96.36;96571.06;5044804;28;20193;-74
2023/01/11 05:16:59;;;;;;;3.27;2.17;;;;;;;6.40;97.04;96570.59;5042865;28;20254;-74
2023/01/11 05:19:26;;;;;;;2.00;1.80;;;;;;;6.37;96.40;96570.69;5045027;28;20775;-73
2023/01/11 05:21:53;;;;;;;3.63;2.90;;;;;;;6.45;96.08;96563.56;5040741;28;20190;-73
2023/01/11 05:24:21;;;;;;;3.73;2.50;;;;;;;6.56;95.20;96574.28;5036865;28;20228;-73
2023/01/11 05:26:49;;;;;;;3.47;2.30;;;;;;;6.41;95.20;96578.25;5044488;28;20200;-73
2023/01/11 05:29:19;;;;;;;4.13;2.63;;;;;;;6.27;95.54;96570.22;5049790;28;20217;-73
2023/01/11 05:31:46;;;;;;;5.80;4.03;;;;;;;6.44;95.79;96579.88;5049873;28;20196;-73
2023/01/11 05:34:15;;;;;;;7.67;5.60;;;;;;;6.47;96.40;96584.94;5049625;28;20306;-77
2023/01/11 05:36:43;;;;;;;6.53;4.60;;;;;;;6.65;96.37;96597.09;5048248;28;20209;-77
2023/01/11 05:39:12;;;;;;;4.20;3.10;;;;;;;6.51;96.14;96587.31;5047448;28;20671;-79
2023/01/11 05:41:39;;;;;;;4.00;3.60;;;;;;;6.36;96.13;96584.47;5048460;28;20287;-74
2023/01/11 05:46:56;;;;;;;4.30;2.80;;;;;;;6.53;95.73;96598.38;5047917;28;20210;-73
2023/01/11 05:49:24;;;;;;;3.57;3.07;;;;;;;6.43;95.62;96603.91;5047596;28;20204;-73
2023/01/11 05:51:51;;;;;;;5.40;3.73;;;;;;;6.53;95.41;96598.38;5048902;28;20750;-76
2023/01/11 05:54:18;;;;;;;4.80;3.70;;;;;;;6.57;97.10;96605.06;5049426;28;20199;-75
2023/01/11 05:56:46;;;;;;;6.37;5.10;;;;;;;6.70;96.03;96612.38;5048435;28;20227;-72
2023/01/11 05:59:14;;;;;;;5.07;3.83;;;;;;;6.67;94.98;96605.59;5047911;28;20672;-76
2023/01/11 06:01:41;;;;;;;9.07;4.90;;;;;;;6.61;95.04;96600.69;5048327;28;20643;-72
2023/01/11 06:04:09;;;;;;;5.87;5.03;;;;;;;6.70;95.87;96609.78;5048671;28;20214;-78
2023/01/11 06:06:36;;;;;;;6.43;4.87;;;;;;;6.56;95.23;96616.28;5048660;28;20311;-77
2023/01/11 06:09:03;;;;;;;5.80;4.03;;;;;;;6.39;94.98;96610.06;5048304;28;20182;-75
2023/01/11 06:11:30;;;;;;;8.20;5.50;;;;;;;6.45;95.44;96613.25;5048975;28;20207;-75
2023/01/11 06:14:36;;;;;;;6.10;4.23;;;;;;;6.62;94.56;96611.78;5046323;28;20196;-75
2023/01/11 06:17:57;;;;;;;5.27;3.07;;;;;;;6.48;95.18;96605.44;5048078;28;20237;-75
2023/01/11 06:21:18;;;;;;;4.63;4.00;;;;;;;6.63;95.00;96628.91;5048769;28;20194;-76
2023/01/11 06:24:38;;;;;;;4.97;4.20;;;;;;;6.56;94.30;96629.13;5048231;28;20263;-78
2023/01/11 06:27:59;;;;;;;17.77;15.90;;;;;;;6.66;94.45;96639.09;5045572;28;20197;-77
2023/01/11 06:31:20;;;;;;;22.70;20.30;;;;;;;6.63;94.18;96637.47;5047670;28;20279;-73
2023/01/11 06:34:40;;;;;;;15.13;12.33;;;;;;;6.72;94.55;96647.41;5049235;28;20583;-73
2023/01/11 06:38:01;;;;;;;8.80;6.37;;;;;;;6.61;94.88;96652.13;5051281;28;20201;-77
2023/01/11 06:41:21;;;;;;;5.50;4.63;;;;;;;6.74;95.56;96657.66;5054798;28;20737;-76
2023/01/11 06:44:42;;;;;;;5.20;4.30;;;;;;;6.82;94.42;96655.66;5052708;28;20304;-77
2023/01/11 06:48:03;;;;;;;9.50;7.20;;;;;;;6.74;94.32;96662.81;5050972;28;20579;-78
2023/01/11 06:51:27;;;;;;;8.17;5.77;;;;;;;6.70;94.04;96664.63;5051586;28;20212;-77
2023/01/11 06:54:48;;;;;;;11.20;6.93;;;;;;;6.81;94.31;96670.25;5048533;28;20689;-76
2023/01/11 06:58:09;;;;;;;11.30;7.60;;;;;;;6.88;93.97;96681.16;5045293;28;20244;-75
2023/01/11 07:01:31;;;;;;;10.20;8.40;;;;;;;6.85;93.73;96687.25;5047572;28;20831;-71
2023/01/11 07:04:55;;;;;;;11.90;8.63;;;;;;;6.87;93.30;96693.19;5045870;28;20686;-77
2023/01/11 07:08:18;;;;;;;9.03;7.00;;;;;;;6.81;94.36;96697.69;5046323;28;20307;-78
2023/01/11 07:11:40;;;;;;;5.73;3.97;;;;;;;6.71;94.15;96707.50;5014141;28;20194;-73
2023/01/11 07:15:01;;;;;;;6.80;4.70;;;;;;;6.80;94.84;96714.06;5045289;28;20197;-73
2023/01/11 07:18:22;;;;;;;7.93;6.37;;;;;;;6.73;95.47;96715.16;5014752;28;20221;-78
2023/01/11 07:21:43;;;;;;;11.23;7.57;;;;;;;6.63;95.13;96721.53;5048034;28;20201;-74
2023/01/11 07:25:04;;;;;;;10.80;7.53;;;;;;;6.44;95.76;96719.59;5045247;28;20221;-77
2023/01/11 07:28:27;;;;;;;12.37;9.07;;;;;;;6.51;96.84;96709.94;5044458;28;20225;-78
2023/01/11 07:31:49;;;;;;;11.30;7.77;;;;;;;6.54;96.35;96720.97;5028407;28;20906;-76
2023/01/11 07:35:10;;;;;;;13.57;9.23;;;;;;;6.68;95.90;96717.06;5047457;28;20192;-78
2023/01/11 07:38:31;;;;;;;36.27;18.03;;;;;;;6.43;95.86;96720.47;5047937;28;20268;-78
2023/01/11 07:45:48;;;;;;;16.33;10.10;;;;;;;6.32;97.21;96729.47;4932255;28;20206;-80
2023/01/11 07:49:08;;;;;;;30.80;19.10;;;;;;;6.25;96.51;96738.28;5045947;28;20238;-75
2023/01/11 07:52:29;;;;;;;42.97;29.73;;;;;;;6.26;97.51;96739.97;5047091;28;20283;-77
2023/01/11 07:55:50;;;;;;;51.20;36.07;;;;;;;6.37;97.79;96741.28;5045100;28;20573;-75
2023/01/11 07:59:11;;;;;;;59.40;41.67;;;;;;;6.63;96.18;96752.41;5027718;28;20218;-76
2023/01/11 08:02:32;;;;;;;51.00;38.47;;;;;;;6.77;96.03;96770.75;5044078;28;20204;-72
2023/01/11 08:05:53;;;;;;;43.10;31.77;;;;;;;6.91;95.90;96776.25;5030047;28;20201;-74
2023/01/11 08:09:14;;;;;;;40.93;31.40;;;;;;;7.08;95.29;96777.34;5030532;28;20218;-75
2023/01/11 08:16:15;;;;;;;25.90;17.60;;;;;;;7.18;94.68;96780.41;5026547;28;20712;-78
2023/01/11 08:19:35;;;;;;;17.83;12.20;;;;;;;7.21;94.58;96778.56;5012202;28;20193;-80
2023/01/11 08:22:56;;;;;;;14.87;10.23;;;;;;;6.93;94.29;96741.84;5013702;28;20225;-79
2023/01/11 08:26:20;;;;;;;16.93;12.10;;;;;;;7.11;94.10;96786.69;5045219;28;20194;-79
2023/01/11 08:29:43;;;;;;;14.47;10.53;;;;;;;7.15;94.20;96788.28;5043764;28;20182;-81
2023/01/11 08:33:04;;;;;;;16.27;9.23;;;;;;;7.25;93.76;96789.59;5028215;28;20626;-76
2023/01/11 08:36:26;;;;;;;11.13;7.83;;;;;;;7.34;92.65;96771.22;5044199;28;20193;-73
2023/01/11 08:39:50;;;;;;;11.17;8.50;;;;;;;7.44;93.09;96795.75;5044779;28;20198;-75
2023/01/11 08:43:13;;;;;;;5.93;4.97;;;;;;;7.07;91.96;96759.34;5043615;28;20185;-77
2023/01/11 08:46:36;;;;;;;16.43;10.00;;;;;;;7.38;92.28;96801.97;5026628;28;20229;-80
2023/01/11 08:49:57;;;;;;;13.63;9.73;;;;;;;7.51;91.91;96801.50;5012279;28;20202;-74
2023/01/11 08:53:19;;;;;;;14.63;10.03;;;;;;;7.06;92.25;96744.81;5029527;28;20570;-78
2023/01/11 08:56:40;;;;;;;13.23;9.27;;;;;;;7.43;92.34;96806.09;5029524;28;20190;-77
2023/01/11 09:00:01;;;;;;;12.90;9.97;;;;;;;7.27;92.60;96805.84;5028196;28;20650;-73
2023/01/11 09:03:22;;;;;;;16.10;11.67;;;;;;;7.30;93.35;96808.28;5046736;28;20240;-80
2023/01/11 09:06:45;;;;;;;16.30;11.90;;;;;;;7.27;93.41;96808.41;5047498;28;20193;-78
2023/01/11 09:10:06;;;;;;;14.83;11.00;;;;;;;7.30;93.01;96813.44;5016707;28;20213;-77
2023/01/11 09:13:27;;;;;;;15.63;11.30;;;;;;;7.49;93.53;96829.91;5016274;28;20201;-79
2023/01/11 09:16:48;;;;;;;16.33;11.30;;;;;;;7.53;93.89;96834.06;5046513;28;20202;-76
2023/01/11 09:20:10;;;;;;;18.17;13.43;;;;;;;7.60;93.95;96838.09;5048697;28;20274;-79
2023/01/11 09:23:31;;;;;;;19.37;13.77;;;;;;;7.57;93.60;96827.03;5047424;28;20226;-78
2023/01/11 09:26:13;;;;;;;21.30;14.20;;;;;;;7.58;93.85;96832.16;5047583;28;20371;-73
2023/01/11 09:28:40;;;;;;;21.33;13.83;;;;;;;7.45;94.62;96835.22;5048704;28;20189;-74
2023/01/11 09:31:08;;;;;;;22.67;16.13;;;;;;;7.43;93.78;96829.28;5049592;28;20248;-73
2023/01/11 09:33:37;;;;;;;29.50;17.67;;;;;;;7.60;93.77;96839.81;5014032;28;20224;-77
2023/01/11 09:36:04;;;;;;;26.43;17.00;;;;;;;7.59;93.53;96833.81;5049318;28;20207;-74
2023/01/11 09:38:33;;;;;;;25.97;18.07;;;;;;;7.60;93.75;96830.38;5047887;28;20673;-75
2023/01/11 09:41:23;;;;;;;26.97;18.67;;;;;;;7.52;93.36;96829.81;5030867;28;20276;-75
2023/01/11 09:44:15;;;;;;;28.83;19.17;;;;;;;7.57;94.24;96819.31;5049188;28;20241;-74
2023/01/11 09:46:50;;;;;;;22.03;15.30;;;;;;;7.49;93.86;96813.59;5048568;28;20198;-75
2023/01/11 09:49:28;;;;;;;25.03;15.87;;;;;;;7.40;94.41;96809.63;5048675;28;20196;-72
2023/01/11 09:52:20;;;;;;;25.57;16.33;;;;;;;7.65;94.74;96814.69;5048338;28;20236;-72
2023/01/11 09:54:47;;;;;;;22.80;16.60;;;;;;;7.68;94.41;96812.88;5047738;28;20199;-73
2023/01/11 09:57:50;;;;;;;19.43;13.97;;;;;;;7.68;93.60;96823.19;5047751;28;20193;-73
2023/01/11 10:00:31;;;;;;;19.50;14.13;;;;;;;7.44;94.18;96790.59;5048341;28;20280;-72
2023/01/11 10:03:18;;;;;;;25.27;17.80;;;;;;;7.84;94.45;96821.69;5047822;28;21066;-73
2023/01/11 10:05:59;;;;;;;20.40;15.53;;;;;;;7.96;93.88;96820.38;5047316;28;20198;-74
2023/01/11 10:08:42;;;;;;;18.30;14.07;;;;;;;7.93;93.69;96825.66;5046612;28;20192;-76
2023/01/11 10:11:57;;;;;;;19.87;15.10;;;;;;;8.00;93.93;96824.50;5048000;28;20716;-72
2023/01/11 10:15:04;;;;;;;26.77;16.00;;;;;;;8.03;94.00;96827.81;5048900;28;20571;-77
2023/01/11 10:18:16;;;;;;;20.70;14.53;;;;;;;8.05;93.36;96831.19;5048337;28;20620;-75
2023/01/11 10:21:22;;;;;;;15.53;11.03;;;;;;;8.00;92.69;96827.94;5047470;28;20659;-73
2023/01/11 10:24:01;;;;;;;16.87;12.20;;;;;;;8.18;92.53;96836.69;5030146;28;20209;-71
2023/01/11 10:26:38;;;;;;;15.40;10.50;;;;;;;7.87;93.01;96826.72;5047616;28;20277;-73
2023/01/11 10:34:44;;;;;;;10.50;7.97;;;;;;;8.02;93.85;96828.72;5047645;28;20189;-72
2023/01/11 10:37:47;;;;;;;19.90;14.20;;;;;;;8.11;93.47;96837.81;5029880;28;20200;-73
2023/01/11 10:40:36;;;;;;;20.17;15.03;;;;;;;8.09;94.10;96843.06;5046873;28;20178;-74
2023/01/11 10:43:15;;;;;;;16.53;11.60;;;;;;;8.17;93.87;96838.44;5045959;28;20260;-77
2023/01/11 10:45:54;;;;;;;18.47;12.73;;;;;;;7.89;93.92;96814.59;5046950;28;20261;-77
2023/01/11 10:48:32;;;;;;;15.83;11.17;;;;;;;8.11;94.16;96833.50;5046560;28;20572;-74
2023/01/11 10:51:08;;;;;;;14.97;10.30;;;;;;;8.16;94.14;96829.00;5045578;28;20189;-74
2023/01/11 10:53:53;;;;;;;11.00;8.07;;;;;;;8.18;93.72;96824.63;5048198;28;20232;-72
2023/01/11 10:56:48;;;;;;;13.23;9.60;;;;;;;8.06;93.36;96816.53;5029355;28;20190;-73
2023/01/11 10:59:55;;;;;;;12.83;9.00;;;;;;;8.05;93.38;96823.44;5045888;28;20200;-76
2023/01/11 11:02:36;;;;;;;14.07;10.00;;;;;;;8.13;93.34;96821.41;5047775;28;20264;-76
2023/01/11 11:05:15;;;;;;;15.40;10.30;;;;;;;8.21;93.70;96832.25;5029064;28;20316;-77
2023/01/11 11:08:02;;;;;;;14.53;8.73;;;;;;;8.11;92.53;96827.50;5047279;28;20223;-74
2023/01/11 11:10:55;;;;;;;14.23;9.77;;;;;;;8.13;93.69;96830.88;5047333;28;20197;-79
2023/01/11 11:13:47;;;;;;;15.93;10.93;;;;;;;7.82;95.29;96787.41;5043863;28;20359;-78
2023/01/11 11:16:21;;;;;;;18.73;14.33;;;;;;;7.99;95.23;96821.09;5045401;28;20190;-75
2023/01/11 11:18:57;;;;;;;20.67;14.47;;;;;;;7.99;96.02;96817.69;5047199;28;20190;-76
2023/01/11 11:21:29;;;;;;;18.27;13.20;;;;;;;7.91;96.26;96817.97;5046549;28;20209;-79
2023/01/11 11:24:00;;;;;;;16.83;12.67;;;;;;;7.94;95.98;96812.69;5046869;28;20674;-75
2023/01/11 11:26:37;;;;;;;15.27;11.33;;;;;;;8.02;96.23;96822.69;5046508;28;20584;-75
2023/01/11 11:29:09;;;;;;;19.33;12.53;;;;;;;7.93;96.04;96810.19;5046768;28;20213;-76
2023/01/11 11:31:42;;;;;;;18.87;12.20;;;;;;;7.89;96.12;96804.28;5047113;28;20626;-76
2023/01/11 11:34:18;;;;;;;16.43;11.67;;;;;;;7.79;96.09;96810.69;5046471;28;20235;-74
2023/01/11 11:36:49;;;;;;;14.43;10.83;;;;;;;7.86;96.10;96814.75;5047282;28;20186;-73
2023/01/11 11:39:18;;;;;;;17.67;12.70;;;;;;;7.88;96.44;96815.53;5046298;28;20186;-74
2023/01/11 11:41:57;;;;;;;26.73;16.30;;;;;;;7.83;97.47;96809.69;5046991;28;20205;-80
2023/01/11 11:44:26;;;;;;;34.37;21.07;;;;;;;7.64;98.04;96813.03;5046363;28;20228;-76
2023/01/11 11:47:05;;;;;;;27.80;19.13;;;;;;;7.81;96.96;96816.63;5044719;28;20190;-73
2023/01/11 11:49:35;;;;;;;27.73;18.47;;;;;;;7.81;97.06;96806.31;5045248;28;20197;-75
2023/01/11 11:52:04;;;;;;;27.17;16.90;;;;;;;7.89;96.80;96824.09;5027395;28;20296;-75
2023/01/11 11:54:39;;;;;;;24.73;15.93;;;;;;;7.80;97.22;96812.41;5047036;28;20198;-73
2023/01/11 11:57:14;;;;;;;16.27;10.00;;;;;;;7.76;97.02;96812.56;5046476;28;20189;-73
2023/01/11 11:59:47;;;;;;;19.20;12.00;;;;;;;7.87;96.61;96815.59;5046609;28;20189;-76
2023/01/11 12:02:26;;;;;;;22.77;14.17;;;;;;;7.85;97.46;96815.63;5046689;28;20239;-72
2023/01/11 12:04:56;;;;;;;20.93;11.50;;;;;;;7.60;97.75;96771.09;5044437;28;20318;-72
2023/01/11 12:07:33;;;;;;;16.53;11.27;;;;;;;7.53;97.27;96774.78;5046698;28;20394;-74
2023/01/11 12:10:15;;;;;;;16.03;11.97;;;;;;;7.81;97.89;96813.25;5046085;28;20182;-73
2023/01/11 12:12:48;;;;;;;18.33;12.70;;;;;;;7.76;98.55;96813.41;5044851;28;20190;-72
2023/01/11 12:15:15;;;;;;;17.93;12.17;;;;;;;7.79;97.49;96807.31;5046704;28;20204;-74
2023/01/11 12:17:43;;;;;;;21.17;14.20;;;;;;;7.92;97.46;96809.34;5045594;28;20279;-75
2023/01/11 12:20:22;;;;;;;19.63;13.07;;;;;;;7.86;97.15;96808.72;5046686;28;20188;-80
2023/01/11 12:23:07;;;;;;;18.30;10.83;;;;;;;7.67;96.62;96807.75;5044411;28;20178;-72
2023/01/11 12:25:44;;;;;;;13.00;9.40;;;;;;;7.60;97.58;96807.16;5045029;28;20286;-74
2023/01/11 12:28:53;;;;;;;14.33;10.27;;;;;;;7.79;97.34;96802.97;5045796;28;20193;-73
2023/01/11 12:31:32;;;;;;;15.37;11.00;;;;;;;7.79;97.12;96809.88;5044055;28;20681;-73
2023/01/11 12:34:02;;;;;;;16.40;11.23;;;;;;;7.80;97.33;96812.41;5046140;28;20185;-75
2023/01/11 12:37:07;;;;;;;23.57;16.13;;;;;;;7.67;97.74;96795.72;5047610;28;20190;-76
2023/01/11 12:40:06;;;;;;;24.30;16.47;;;;;;;7.77;97.30;96799.63;5048190;28;20197;-80
2023/01/11 12:42:46;;;;;;;23.60;16.27;;;;;;;7.87;96.91;96816.41;5032507;28;20206;-78
2023/01/11 12:45:52;;;;;;;24.83;17.37;;;;;;;7.95;96.82;96819.56;5050211;28;20611;-77
2023/01/11 12:49:20;;;;;;;28.90;18.57;;;;;;;7.84;96.73;96829.44;5047833;28;20611;-77
2023/01/11 12:52:21;;;;;;;44.20;30.23;;;;;;;7.78;97.02;96827.09;4987665;28;20205;-77
2023/01/11 12:55:14;;;;;;;52.70;39.87;;;;;;;7.81;97.91;96837.25;4988554;28;20195;-72
2023/01/11 12:58:03;;;;;;;44.30;32.07;;;;;;;7.73;98.00;96844.44;5048235;28;20583;-77
2023/01/11 13:00:52;;;;;;;34.40;23.23;;;;;;;7.75;97.77;96842.66;5048517;28;20214;-74
2023/01/11 13:03:45;;;;;;;24.20;15.60;;;;;;;7.70;98.27;96849.72;5032056;28;20216;-74
2023/01/11 13:06:21;;;;;;;22.60;15.87;;;;;;;7.68;97.83;96846.38;5048859;28;20240;-75
2023/01/11 13:09:03;;;;;;;25.97;15.80;;;;;;;7.34;98.99;96851.06;5048247;28;20251;-73
2023/01/11 13:11:36;;;;;;;27.23;16.60;;;;;;;7.26;99.98;96855.66;5049677;28;20194;-73
2023/01/11 13:14:32;;;;;;;32.53;21.10;;;;;;;7.27;100.00;96859.94;5049274;28;20294;-73
2023/01/11 13:17:05;;;;;;;32.97;20.63;;;;;;;7.35;100.00;96863.06;5048340;28;20290;-75
2023/01/11 13:19:45;;;;;;;34.87;22.57;;;;;;;7.54;100.00;96855.50;5047854;28;20731;-74
2023/01/11 13:22:21;;;;;;;34.10;22.20;;;;;;;7.65;99.42;96867.09;5046531;28;20252;-72
2023/01/11 13:24:50;;;;;;;29.77;20.57;;;;;;;7.60;99.96;96863.88;5048565;28;20248;-76